This is the latest recevied weather packets stored in our database for station/object CT1ETE-13. If no packets are shown the sender has not sent any weather packets the latest 10 day(s).
| Time | Temp. | Humidity | Pressure | Rain* | Wind** | Luminosity | Snow |
|---|---|---|---|---|---|---|---|
| 1787548781 | 17.22° C | 85% | 1008.5 hPa | 0.25 mm | - | 1498 W/m² | - |
| 1787547880 | 16.67° C | 84% | 1008.5 hPa | 0.25 mm | - | 1499 W/m² | - |
| 1787546981 | 16.67° C | 84% | 1008.6 hPa | 0 mm | - | 1501 W/m² | - |
| 1787546140 | 16.67° C | 83% | 1008.7 hPa | 0 mm | - | 1505 W/m² | - |
| 1787545239 | 16.67° C | 83% | 1008.8 hPa | 0 mm | - | 1506 W/m² | - |
| 1787544278 | 16.67° C | 83% | 1009.2 hPa | 0 mm | - | 1510 W/m² | - |
| 1787543378 | 16.67° C | 82% | 1009 hPa | 0 mm | - | 1513 W/m² | - |
| 1787542536 | 16.67° C | 80% | 1009 hPa | 0 mm | - | 1519 W/m² | - |
| 1787541576 | 16.11° C | 74% | 1009.2 hPa | 0.25 mm | - | 1522 W/m² | - |
| 1787540676 | 16.11° C | 72% | 1009.2 hPa | 0.76 mm | - | 1526 W/m² | - |
| 1787539777 | 16.67° C | 73% | 1009.5 hPa | 1.02 mm | - | 1531 W/m² | - |
| 1787538876 | 16.67° C | 74% | 1009.6 hPa | 1.52 mm | - | 1535 W/m² | - |
| 1787538037 | 16.67° C | 77% | 1009.5 hPa | 5.08 mm | - | 1566 W/m² | - |
| 1787537136 | 16.67° C | 79% | 1009.6 hPa | 4.83 mm | - | 1608 W/m² | - |
| 1787536175 | 16.67° C | 81% | 1009.8 hPa | 4.83 mm | - | 1624 W/m² | - |
| 1787535331 | 17.22° C | 84% | 1009.9 hPa | 4.32 mm | - | 1637 W/m² | - |
| 1787534371 | 17.78° C | 85% | 1009.9 hPa | 0.76 mm | - | 1598 W/m² | - |
| 1787533470 | 17.78° C | 85% | 1010.1 hPa | 0.51 mm | - | 1573 W/m² | - |
| 1787532570 | 17.78° C | 84% | 1010.2 hPa | 0.51 mm | - | 1568 W/m² | - |
| 1787531670 | 17.78° C | 84% | 1010.3 hPa | 0.51 mm | - | 1561 W/m² | - |
| 1787530770 | 18.33° C | 81% | 1010.3 hPa | 0.25 mm | - | 1564 W/m² | - |
| 1787529870 | 18.89° C | 76% | 1010.5 hPa | 0 mm | - | 1566 W/m² | - |
| 1787529028 | 18.89° C | 75% | 1010.5 hPa | 0 mm | - | 1571 W/m² | - |
| 1787528069 | 18.89° C | 79% | 1010.8 hPa | 0 mm | - | 1575 W/m² | - |
| 1787527168 | 18.89° C | 76% | 1010.9 hPa | 0 mm | - | 1580 W/m² | - |
* Rain latest hour (hover to see other rain measurements)
** Current wind speed in m/s (hover to see current wind gust speed)